^^
Meteo Knjazevac Station Historical Data
Daily Summary for June 1, 2022 Units:  English    Metric   Both
Daily Weekly Monthly Yearly Custom
  High: Low: Average:
Temperature: 81.8 °F 42.4 °F 58.6 °F
Dew Point: 58.2 °F 41.7 °F 49.1 °F
Humidity: 99% 43.5% 74%
Wind Speed: 8.1mph 0mph 3mph
Wind Gust: 11mph - -
Wind- - West
Pressure: 30.27 in 30.16 in -
Precipitation: 0.00 in    
Historical Graphs
 
 
Tabular Data for June 1, 2022
Time Temperature Dew Point Pressure Wind Wind Speed Wind Gust Humidity Rainfall Rate (Hourly) solar Conditions
00:04 47.9 °F 45.2 °F 30.24 in NNW 2.2 mph 2 mph 90.4% 0.00 in 0 W/m2
00:09 47.8 °F 45.2 °F 30.24 in NNW 2.6 mph 3 mph 90.8% 0.00 in 0 W/m2
00:14 47.8 °F 45 °F 30.24 in NNW 2.1 mph 3 mph 90% 0.00 in 0 W/m2
00:19 47.7 °F 44.9 °F 30.24 in NNW 1.7 mph 2 mph 90% 0.00 in 0 W/m2
00:24 47.6 °F 45 °F 30.24 in NNW 2.2 mph 2 mph 90.7% 0.00 in 0 W/m2
00:29 47.7 °F 45.5 °F 30.24 in NNW 2.3 mph 2 mph 92.3% 0.00 in 0 W/m2
00:34 47.7 °F 45 °F 30.24 in North 2.8 mph 3 mph 90.4% 0.00 in 0 W/m2
00:39 47.4 °F 44.6 °F 30.24 in NNW 2.7 mph 3 mph 90.1% 0.00 in 0 W/m2
00:44 47.3 °F 44.8 °F 30.23 in NW 3 mph 3 mph 91% 0.00 in 0 W/m2
00:49 47.3 °F 44.9 °F 30.23 in NW 2.1 mph 5 mph 91.4% 0.00 in 0 W/m2
00:54 47.3 °F 44.8 °F 30.23 in ESE 1.7 mph 2 mph 90.9% 0.00 in 0 W/m2
00:59 47 °F 44.4 °F 30.23 in WNW 2.3 mph 2 mph 90.5% 0.00 in 0 W/m2
01:04 46.9 °F 44.4 °F 30.23 in NW 2.3 mph 3 mph 91% 0.00 in 0 W/m2
01:09 46.9 °F 44.4 °F 30.23 in NW 2.2 mph 2 mph 91% 0.00 in 0 W/m2
01:14 46.7 °F 44.2 °F 30.23 in WNW 2.5 mph 3 mph 91% 0.00 in 0 W/m2
01:19 46.5 °F 44.2 °F 30.24 in WNW 4.1 mph 4 mph 91.6% 0.00 in 0 W/m2
01:24 46.6 °F 44.8 °F 30.23 in WNW 4.1 mph 6 mph 93.5% 0.00 in 0 W/m2
01:29 46.5 °F 44.2 °F 30.23 in WNW 2.3 mph 5 mph 91.7% 0.00 in 0 W/m2
01:34 46.2 °F 43.7 °F 30.23 in WNW 3.5 mph 3.1 mph 91% 0.00 in 0 W/m2
01:39 46 °F 44 °F 30.23 in WNW 3.7 mph 5 mph 92.8% 0.00 in 0 W/m2
01:44 45.7 °F 43.8 °F 30.23 in West 2.5 mph 5 mph 93% 0.00 in 0 W/m2
01:49 45.6 °F 43.7 °F 30.23 in WNW 3.2 mph 3 mph 93% 0.00 in 0 W/m2
01:54 45.5 °F 43.6 °F 30.23 in NW 2.5 mph 4 mph 93% 0.00 in 0 W/m2
01:59 45.3 °F 43.5 °F 30.23 in WNW 3.6 mph 3 mph 93.4% 0.00 in 0 W/m2
02:04 45.1 °F 43.3 °F 30.23 in WNW 2.9 mph 5 mph 93.3% 0.00 in 0 W/m2
02:09 45 °F 43.2 °F 30.23 in WNW 2.6 mph 3 mph 93.2% 0.00 in 0 W/m2
02:14 44.8 °F 43.2 °F 30.23 in WNW 3 mph 3 mph 94% 0.00 in 0 W/m2
02:19 44.7 °F 43.1 °F 30.23 in WNW 3.2 mph 3 mph 94% 0.00 in 0 W/m2
02:24 44.6 °F 43 °F 30.23 in WNW 2.9 mph 3 mph 94% 0.00 in 0 W/m2
02:29 44.6 °F 43.3 °F 30.23 in WNW 2.8 mph 4 mph 94.9% 0.00 in 0 W/m2
02:34 44.6 °F 43.3 °F 30.23 in NW 3.4 mph 4 mph 95% 0.00 in 0 W/m2
02:39 44.6 °F 43.3 °F 30.23 in WNW 3 mph 5 mph 95% 0.00 in 0 W/m2
02:44 44.7 °F 43.3 °F 30.23 in WNW 3 mph 3 mph 95% 0.00 in 0 W/m2
02:49 44.7 °F 43.4 °F 30.23 in WNW 3 mph 4 mph 95% 0.00 in 0 W/m2
02:54 44.6 °F 43.3 °F 30.23 in West 3.2 mph 3 mph 95% 0.00 in 0 W/m2
02:59 44.6 °F 43.3 °F 30.23 in West 2.2 mph 4 mph 95% 0.00 in 0 W/m2
03:04 44.4 °F 43.1 °F 30.23 in West 2.5 mph 2 mph 95% 0.00 in 0 W/m2
03:09 44.3 °F 43 °F 30.23 in West 2.5 mph 3 mph 95% 0.00 in 0 W/m2
03:14 44.2 °F 42.9 °F 30.23 in WNW 2 mph 3 mph 95% 0.00 in 0 W/m2
03:19 44.1 °F 42.7 °F 30.24 in WNW 2.1 mph 3 mph 95% 0.00 in 0 W/m2
03:24 43.9 °F 42.5 °F 30.24 in WNW 2.6 mph 2.5 mph 95% 0.00 in 0 W/m2
03:29 43.7 °F 42.4 °F 30.24 in WNW 2.5 mph 3 mph 95% 0.00 in 0 W/m2
03:34 43.7 °F 42.3 °F 30.24 in NW 2 mph 3 mph 95% 0.00 in 0 W/m2
03:39 43.5 °F 42.2 °F 30.24 in WNW 2.3 mph 3 mph 95% 0.00 in 0 W/m2
03:44 43.5 °F 42.3 °F 30.24 in WNW 3.2 mph 3.1 mph 95.3% 0.00 in 0 W/m2
03:49 43.6 °F 42.9 °F 30.24 in West 3.6 mph 4 mph 97.2% 0.00 in 0 W/m2
03:54 43.8 °F 43.3 °F 30.24 in West 3.1 mph 5 mph 98% 0.00 in 0 W/m2
03:59 43.9 °F 43.4 °F 30.24 in West 3.4 mph 4 mph 98% 0.00 in 0 W/m2
04:04 44.1 °F 43.3 °F 30.24 in WNW 2.5 mph 4 mph 97.2% 0.00 in 0 W/m2
04:09 44 °F 42.9 °F 30.24 in WNW 3.1 mph 4 mph 96% 0.00 in 0 W/m2
04:14 43.8 °F 42.7 °F 30.24 in WNW 3.4 mph 4 mph 96% 0.00 in 0 W/m2
04:19 43.7 °F 42.6 °F 30.24 in West 3.1 mph 5 mph 96% 0.00 in 0 W/m2
04:24 43.6 °F 42.6 °F 30.24 in West 3.2 mph 5 mph 96% 0.00 in 0 W/m2
04:29 43.5 °F 42.5 °F 30.24 in West 3.1 mph 3 mph 96% 0.00 in 0 W/m2
04:34 43.4 °F 42.4 °F 30.25 in West 3.2 mph 3 mph 96% 0.00 in 0 W/m2
04:39 43.3 °F 42.3 °F 30.25 in West 3.2 mph 4 mph 96% 0.00 in 0 W/m2
04:44 43.3 °F 42.2 °F 30.25 in West 2.8 mph 3 mph 96% 0.00 in 0 W/m2
04:49 43.2 °F 42.1 °F 30.25 in WNW 2.9 mph 4 mph 96% 0.00 in 0 W/m2
04:54 43 °F 41.9 °F 30.25 in WNW 2.3 mph 3 mph 96% 0.00 in 0 W/m2
04:59 42.8 °F 41.7 °F 30.25 in WNW 3.2 mph 3 mph 96% 0.00 in 0 W/m2
05:04 42.8 °F 42.1 °F 30.25 in WNW 3 mph 4 mph 97.3% 0.00 in 0 W/m2
05:09 42.9 °F 42.4 °F 30.25 in WNW 3.4 mph 4 mph 98% 0.00 in 0 W/m2
05:14 42.8 °F 42.3 °F 30.25 in WNW 3 mph 4 mph 98% 0.00 in 0 W/m2
05:19 42.8 °F 42.3 °F 30.25 in WNW 3.9 mph 6 mph 98% 0.00 in 0 W/m2
05:24 42.8 °F 42.3 °F 30.25 in WNW 3.7 mph 5 mph 98% 0.00 in 0 W/m2
05:29 42.8 °F 42 °F 30.25 in West 3.3 mph 5 mph 96.9% 0.00 in 0 W/m2
05:34 42.8 °F 42.2 °F 30.25 in West 2.3 mph 4 mph 97.8% 0.00 in 0 W/m2
05:39 42.8 °F 42.3 °F 30.25 in WNW 3 mph 3 mph 98% 0.00 in 0 W/m2
05:44 42.7 °F 42.2 °F 30.25 in WNW 2.8 mph 3 mph 98% 0.00 in 0 W/m2
05:49 42.6 °F 42.1 °F 30.25 in WNW 3.3 mph 4 mph 98% 0.00 in 0 W/m2
05:54 42.6 °F 42.1 °F 30.25 in WNW 2.3 mph 4 mph 98% 0.00 in 0 W/m2
05:59 42.5 °F 42 °F 30.25 in WNW 3.1 mph 3 mph 98% 0.00 in 1 W/m2
06:04 42.6 °F 42.3 °F 30.25 in WNW 3 mph 3 mph 98.6% 0.00 in 3 W/m2
06:09 42.6 °F 42.3 °F 30.25 in WNW 3 mph 4 mph 98.7% 0.00 in 5 W/m2
06:14 42.5 °F 42 °F 30.25 in WNW 3.4 mph 4 mph 98% 0.00 in 8 W/m2
06:19 42.5 °F 42.3 °F 30.26 in WNW 2.4 mph 4 mph 98.9% 0.00 in 14 W/m2
06:24 42.6 °F 42.1 °F 30.26 in NNW 2 mph 2.5 mph 98.1% 0.00 in 17 W/m2
06:29 42.5 °F 42 °F 30.26 in NW 3 mph 3 mph 98% 0.00 in 24 W/m2
06:34 42.4 °F 41.9 °F 30.26 in NW 2.5 mph 3 mph 98% 0.00 in 30 W/m2
06:39 42.4 °F 41.9 °F 30.26 in NW 2.1 mph 3 mph 98% 0.00 in 38 W/m2
06:44 42.4 °F 41.9 °F 30.26 in NW 3.4 mph 3.1 mph 98% 0.00 in 48 W/m2
06:49 42.5 °F 42.2 °F 30.26 in West 3.8 mph 5 mph 98.7% 0.00 in 55 W/m2
06:54 42.8 °F 42.5 °F 30.26 in WNW 3 mph 5 mph 99% 0.00 in 65 W/m2
06:59 42.9 °F 42.6 °F 30.26 in WNW 3.4 mph 3 mph 98.6% 0.00 in 75 W/m2
07:04 43.2 °F 42.9 °F 30.27 in West 4 mph 5 mph 99% 0.00 in 88 W/m2
07:09 43.4 °F 43.2 °F 30.27 in West 4.1 mph 5 mph 99% 0.00 in 97 W/m2
07:14 43.7 °F 43.5 °F 30.27 in West 3.6 mph 5 mph 99% 0.00 in 107 W/m2
07:19 44.2 °F 43.9 °F 30.27 in West 4.1 mph 5 mph 99% 0.00 in 120 W/m2
07:24 44.6 °F 44.3 °F 30.27 in West 3.9 mph 5 mph 99% 0.00 in 128 W/m2
07:29 45.5 °F 45.2 °F 30.27 in West 4.1 mph 5 mph 98.8% 0.00 in 146 W/m2
07:34 46.5 °F 45.8 °F 30.27 in West 2.3 mph 6 mph 97.5% 0.00 in 157 W/m2
07:39 47.4 °F 46.3 °F 30.27 in West 1.9 mph 3 mph 95.8% 0.00 in 172 W/m2
07:44 48.6 °F 47.1 °F 30.27 in WSW 2.2 mph 2 mph 94.6% 0.00 in 186 W/m2
07:49 49.5 °F 47.7 °F 30.27 in WSW 2.1 mph 2 mph 93.3% 0.00 in 195 W/m2
07:54 50.3 °F 47.8 °F 30.27 in WSW 2.3 mph 2 mph 91.2% 0.00 in 211 W/m2
07:59 50.7 °F 48.2 °F 30.27 in WSW 2.5 mph 3 mph 91% 0.00 in 222 W/m2
08:04 51.2 °F 48.4 °F 30.27 in West 2.3 mph 3 mph 90.2% 0.00 in 237 W/m2
08:09 52 °F 49.1 °F 30.27 in WSW 1.7 mph 3 mph 89.9% 0.00 in 247 W/m2
08:14 52.9 °F 49.7 °F 30.27 in West 2.9 mph 2.7 mph 88.9% 0.00 in 262 W/m2
08:19 53.7 °F 50.4 °F 30.27 in West 2.5 mph 4 mph 88.5% 0.00 in 275 W/m2
08:24 54.6 °F 50.9 °F 30.27 in West 2.2 mph 2 mph 87.5% 0.00 in 284 W/m2
08:29 55.3 °F 51.2 °F 30.27 in WSW 2.5 mph 2 mph 86% 0.00 in 299 W/m2
08:34 56 °F 51.7 °F 30.27 in West 3.1 mph 3 mph 85.5% 0.00 in 312 W/m2
08:39 56.5 °F 51.8 °F 30.27 in West 2.8 mph 3 mph 84.2% 0.00 in 325 W/m2
08:44 57 °F 51.9 °F 30.27 in West 2.8 mph 3 mph 83% 0.00 in 336 W/m2
08:49 57.6 °F 52.4 °F 30.27 in West 2.9 mph 3 mph 83% 0.00 in 345 W/m2
08:54 58.4 °F 52.6 °F 30.26 in West 3 mph 3 mph 81.2% 0.00 in 359 W/m2
08:59 59.3 °F 53.1 °F 30.26 in West 3 mph 4 mph 79.9% 0.00 in 367 W/m2
09:04 60.1 °F 53.5 °F 30.26 in West 2.6 mph 3 mph 79% 0.00 in 380 W/m2
09:09 60.9 °F 54.1 °F 30.26 in WSW 3 mph 4 mph 78.1% 0.00 in 390 W/m2
09:14 61.9 °F 54.4 °F 30.26 in WSW 2.1 mph 5 mph 76.4% 0.00 in 399 W/m2
09:19 63.1 °F 54.9 °F 30.26 in WSW 2.2 mph 2 mph 74.5% 0.00 in 411 W/m2
09:24 64.2 °F 55.6 °F 30.26 in SW 2.5 mph 3 mph 73.7% 0.00 in 417 W/m2
09:29 65 °F 55.5 °F 30.26 in SW 2.2 mph 3 mph 71.5% 0.00 in 427 W/m2
09:34 65.9 °F 55.9 °F 30.25 in SW 2.2 mph 2 mph 70% 0.00 in 431 W/m2
09:39 67 °F 56.7 °F 30.25 in SW 2.2 mph 2 mph 69.4% 0.00 in 424 W/m2
09:44 67.7 °F 56.3 °F 30.25 in SW 2.1 mph 3 mph 66.8% 0.00 in 333 W/m2
09:49 68.4 °F 56.4 °F 30.25 in SW 2.2 mph 3 mph 65.4% 0.00 in 272 W/m2
09:54 69.1 °F 56.6 °F 30.25 in SW 2.8 mph 2.2 mph 64.5% 0.00 in 180 W/m2
09:59 69.9 °F 56.8 °F 30.25 in SW 3 mph 3 mph 63.2% 0.00 in 140 W/m2
10:04 70.2 °F 56.8 °F 30.25 in SW 2.2 mph 3 mph 62.5% 0.00 in 164 W/m2
10:09 70.8 °F 56.9 °F 30.25 in SW 2.2 mph 2 mph 61.6% 0.00 in 237 W/m2
10:14 71.1 °F 56.5 °F 30.25 in SW 2.2 mph 2 mph 60% 0.00 in 293 W/m2
10:19 71.5 °F 56.9 °F 30.25 in SSW 2.3 mph 2 mph 60% 0.00 in 504 W/m2
10:24 72.2 °F 57.3 °F 30.24 in SW 2.2 mph 3 mph 59.4% 0.00 in 521 W/m2
10:29 72.7 °F 57.1 °F 30.24 in WSW 3 mph 3 mph 58.2% 0.00 in 521 W/m2
10:34 72.8 °F 57 °F 30.24 in WSW 2.2 mph 3 mph 57.7% 0.00 in 526 W/m2
10:39 73.5 °F 57.7 °F 30.24 in SW 2.2 mph 2 mph 57.7% 0.00 in 532 W/m2
10:44 73.9 °F 57.3 °F 30.23 in WSW 2.7 mph 2 mph 56% 0.00 in 538 W/m2
10:49 74 °F 56.9 °F 30.23 in South 2.4 mph 3 mph 55% 0.00 in 539 W/m2
10:54 74.2 °F 56.9 °F 30.23 in SSE 2.3 mph 2 mph 54.8% 0.00 in 541 W/m2
10:59 74.9 °F 57.7 °F 30.23 in NNW 3.8 mph 3.6 mph 55% 0.00 in 545 W/m2
11:04 75.4 °F 57.7 °F 30.23 in NNE 3.2 mph 5 mph 54.3% 0.00 in 545 W/m2
11:09 75.5 °F 57.4 °F 30.22 in East 3.1 mph 3 mph 53.5% 0.00 in 546 W/m2
11:14 75.3 °F 56.7 °F 30.22 in SW 3.3 mph 4 mph 52.5% 0.00 in 546 W/m2
11:19 75.5 °F 56.6 °F 30.22 in WSW 5.1 mph 5 mph 52% 0.00 in 549 W/m2
11:24 76.1 °F 57.2 °F 30.22 in SW 4.6 mph 6 mph 52% 0.00 in 548 W/m2
11:29 76.6 °F 56.7 °F 30.22 in SW 5 mph 6 mph 50.2% 0.00 in 546 W/m2
11:34 77.3 °F 57.2 °F 30.21 in SW 4.2 mph 6 mph 50% 0.00 in 546 W/m2
11:39 78.1 °F 57.8 °F 30.21 in WSW 5.1 mph 6 mph 49.8% 0.00 in 543 W/m2
11:44 78.6 °F 57.8 °F 30.21 in WSW 5.8 mph 6 mph 48.9% 0.00 in 542 W/m2
11:49 78.8 °F 57.5 °F 30.21 in SW 5.7 mph 7 mph 48.3% 0.00 in 540 W/m2
11:54 78.6 °F 57.3 °F 30.21 in SW 5.7 mph 7 mph 48% 0.00 in 538 W/m2
11:59 78.6 °F 57.3 °F 30.21 in SW 5.1 mph 7 mph 48% 0.00 in 534 W/m2
12:04 78.6 °F 57.2 °F 30.20 in SW 6.2 mph 6 mph 47.8% 0.00 in 529 W/m2
12:09 78.9 °F 57.5 °F 30.20 in SW 4.7 mph 7 mph 47.9% 0.00 in 526 W/m2
12:14 79.4 °F 57.7 °F 30.20 in SW 8.1 mph 6 mph 47.5% 0.00 in 522 W/m2
12:19 79.8 °F 57.6 °F 30.19 in WSW 7.1 mph 11 mph 46.8% 0.00 in 516 W/m2
12:24 79.8 °F 56.6 °F 30.19 in WSW 6.7 mph 8 mph 45% 0.00 in 510 W/m2
12:29 79.8 °F 56.8 °F 30.19 in SW 6.1 mph 7 mph 45.4% 0.00 in 505 W/m2
12:34 79.9 °F 56.5 °F 30.19 in SW 7.2 mph 7 mph 44.8% 0.00 in 499 W/m2
12:39 79.9 °F 56.2 °F 30.19 in SW 7.2 mph 8 mph 44.3% 0.00 in 491 W/m2
12:44 79.7 °F 56.5 °F 30.19 in SW 5.3 mph 8 mph 45% 0.00 in 483 W/m2
12:49 80 °F 56.4 °F 30.19 in SW 4.3 mph 6 mph 44.6% 0.00 in 474 W/m2
12:54 80 °F 56.5 °F 30.19 in SW 4.8 mph 5 mph 44.6% 0.00 in 467 W/m2
12:59 80.4 °F 57.1 °F 30.18 in SW 4.4 mph 6 mph 45% 0.00 in 455 W/m2
13:04 81.1 °F 57.8 °F 30.18 in SW 6.2 mph 6 mph 45% 0.00 in 449 W/m2
13:09 81.5 °F 57.7 °F 30.18 in WSW 5.3 mph 7 mph 44.5% 0.00 in 435 W/m2
13:14 81.6 °F 58.2 °F 30.18 in SW 4.1 mph 6 mph 45% 0.00 in 427 W/m2
13:19 81.7 °F 57.7 °F 30.18 in SW 6.2 mph 6 mph 44.1% 0.00 in 415 W/m2
13:24 81.7 °F 58 °F 30.18 in WSW 4.5 mph 7 mph 44.5% 0.00 in 405 W/m2
13:29 81.6 °F 57.6 °F 30.18 in SW 4.6 mph 6 mph 44.1% 0.00 in 395 W/m2
13:34 81.4 °F 57.7 °F 30.17 in SW 3.5 mph 6 mph 44.5% 0.00 in 382 W/m2
13:39 81.6 °F 58.2 °F 30.17 in SW 4 mph 4 mph 45% 0.00 in 371 W/m2
13:44 81.8 °F 58 °F 30.17 in WSW 3.3 mph 5 mph 44.4% 0.00 in 359 W/m2
13:49 81.1 °F 56.8 °F 30.17 in SW 4.1 mph 4 mph 43.5% 0.00 in 346 W/m2
13:54 80.7 °F 56.7 °F 30.17 in SSW 3.6 mph 5 mph 44% 0.00 in 334 W/m2
13:59 80.4 °F 56.6 °F 30.17 in SSW 2.8 mph 4 mph 44.2% 0.00 in 323 W/m2
14:04 80.2 °F 56.5 °F 30.17 in SSW 2.9 mph 3 mph 44.3% 0.00 in 309 W/m2
14:09 80.3 °F 57 °F 30.17 in WSW 2.8 mph 3 mph 44.9% 0.00 in 296 W/m2
14:14 80.4 °F 56.8 °F 30.17 in SW 3.3 mph 3 mph 44.4% 0.00 in 283 W/m2
14:19 80.5 °F 57.2 °F 30.17 in SSW 3.5 mph 4 mph 45% 0.00 in 268 W/m2
14:24 80.7 °F 57 °F 30.17 in SSW 4.5 mph 5 mph 44.3% 0.00 in 257 W/m2
14:29 80.6 °F 57 °F 30.17 in South 3.6 mph 5 mph 44.5% 0.00 in 244 W/m2
14:34 80.4 °F 56.6 °F 30.17 in South 3.3 mph 4 mph 44.1% 0.00 in 230 W/m2
14:39 80.4 °F 57 °F 30.17 in South 3 mph 4 mph 44.8% 0.00 in 215 W/m2
14:44 80.4 °F 57.1 °F 30.17 in SSW 4.4 mph 4 mph 45% 0.00 in 202 W/m2
14:49 80.4 °F 57.1 °F 30.17 in SW 5 mph 5 mph 45% 0.00 in 189 W/m2
14:54 80.4 °F 57.3 °F 30.17 in SSW 4.3 mph 6 mph 45.4% 0.00 in 176 W/m2
14:59 80.2 °F 57.1 °F 30.16 in SSW 4.2 mph 5 mph 45.2% 0.00 in 163 W/m2
15:04 80.2 °F 57 °F 30.16 in SW 4.8 mph 5 mph 45% 0.00 in 150 W/m2
15:09 80.1 °F 56.8 °F 30.17 in SW 5 mph 6 mph 45% 0.00 in 138 W/m2
15:14 79.9 °F 56.6 °F 30.16 in SW 4 mph 6 mph 45% 0.00 in 124 W/m2
15:19 79.9 °F 56.6 °F 30.16 in SSW 4.4 mph 5 mph 45% 0.00 in 115 W/m2
15:24 79.7 °F 56.5 °F 30.16 in SW 4.5 mph 6 mph 45% 0.00 in 102 W/m2
15:29 79.5 °F 56.3 °F 30.16 in SW 3.9 mph 6 mph 45% 0.00 in 91 W/m2
15:34 79.2 °F 56.5 °F 30.16 in SW 3.7 mph 5 mph 45.7% 0.00 in 80 W/m2
15:39 79 °F 56.8 °F 30.16 in SW 3.4 mph 5 mph 46.6% 0.00 in 68 W/m2
15:44 78.7 °F 56.8 °F 30.16 in SW 3.4 mph 4 mph 47% 0.00 in 59 W/m2
15:49 78.4 °F 56.5 °F 30.16 in SW 2.7 mph 4 mph 47% 0.00 in 50 W/m2
15:54 78.1 °F 56.8 °F 30.16 in SW 3.1 mph 3 mph 47.9% 0.00 in 41 W/m2
15:59 77.7 °F 56.5 °F 30.16 in SW 3.5 mph 5 mph 48% 0.00 in 34 W/m2
16:04 77.3 °F 56.1 °F 30.16 in SW 2.3 mph 5 mph 48% 0.00 in 25 W/m2
16:09 76.9 °F 55.8 °F 30.16 in SW 2.7 mph 2 mph 48.3% 0.00 in 20 W/m2
16:14 76.3 °F 55.8 °F 30.16 in SW 2.2 mph 3 mph 49.2% 0.00 in 16 W/m2
16:19 75.7 °F 55.4 °F 30.16 in SW 2.3 mph 2 mph 49.4% 0.00 in 11 W/m2
16:24 75.1 °F 55.2 °F 30.16 in SW 2.2 mph 3 mph 50% 0.00 in 6 W/m2
16:29 74.4 °F 55.4 °F 30.16 in SW 1.3 mph 2 mph 51.6% 0.00 in 3 W/m2
16:34 73.6 °F 55.5 °F 30.16 in SW 1.8 mph 2 mph 53.2% 0.00 in 2 W/m2
16:39 72.9 °F 55.1 °F 30.17 in SSW 1.8 mph 2 mph 53.8% 0.00 in 0 W/m2
16:44 72 °F 54.7 °F 30.17 in WSW 2.5 mph 2.2 mph 54.5% 0.00 in 0 W/m2
16:49 71.2 °F 54 °F 30.17 in WSW 2.3 mph 3 mph 54.6% 0.00 in 0 W/m2
16:54 70.5 °F 54.1 °F 30.17 in SW 2.2 mph 2 mph 56.2% 0.00 in 0 W/m2
16:59 69.9 °F 53.9 °F 30.17 in South 2.8 mph 3 mph 57% 0.00 in 0 W/m2
17:04 69.3 °F 53.7 °F 30.17 in SSE 3.6 mph 5 mph 57.7% 0.00 in 0 W/m2
17:09 68.8 °F 53.4 °F 30.17 in South 2.3 mph 4 mph 58% 0.00 in 0 W/m2
17:14 68.3 °F 53.1 °F 30.17 in South 2.5 mph 3 mph 58.5% 0.00 in 0 W/m2
17:19 67.9 °F 52.6 °F 30.17 in SSW 1.9 mph 3 mph 58.2% 0.00 in 0 W/m2
17:24 67.4 °F 52.6 °F 30.18 in SSE 1.9 mph 2 mph 59% 0.00 in 0 W/m2
17:29 66.8 °F 52 °F 30.17 in South 2.2 mph 3 mph 59% 0.00 in 0 W/m2
17:34 66.4 °F 51.8 °F 30.18 in SSW 1.8 mph 2 mph 59.4% 0.00 in 0 W/m2
17:39 65.9 °F 51.6 °F 30.18 in West 0.9 mph 2 mph 60% 0.00 in 0 W/m2
17:44 65.5 °F 51.6 °F 30.18 in NW 0.9 mph 1 mph 60.8% 0.00 in 0 W/m2
17:49 64.9 °F 51.5 °F 30.18 in NNW 0.9 mph 2 mph 61.8% 0.00 in 0 W/m2
17:54 64.3 °F 51.2 °F 30.18 in NNW 1.9 mph 1.3 mph 62.3% 0.00 in 0 W/m2
17:59 63.8 °F 50.9 °F 30.18 in NNW 0.9 mph 2 mph 63% 0.00 in 0 W/m2
18:04 63.1 °F 50.7 °F 30.18 in Calm   1 mph 63.9% 0.00 in 0 W/m2
18:09 62.5 °F 50.6 °F 30.19 in SW 0.4 mph 0.7 mph 64.9% 0.00 in 0 W/m2
18:14 62 °F 49.7 °F 30.19 in SW 0.7 mph 2 mph 64.1% 0.00 in 0 W/m2
18:19 61.2 °F 49 °F 30.19 in SW 2 mph 2 mph 64.1% 0.00 in 0 W/m2
18:24 60.5 °F 48.6 °F 30.19 in WSW 1.6 mph 2 mph 64.9% 0.00 in 0 W/m2
18:29 60.1 °F 48.3 °F 30.19 in West 2.3 mph 2.5 mph 65.2% 0.00 in 0 W/m2
18:34 59.4 °F 48.5 °F 30.19 in WSW 2.2 mph 3 mph 67% 0.00 in 0 W/m2
18:39 59 °F 48.3 °F 30.19 in WSW 1.1 mph 2 mph 67.8% 0.00 in 0 W/m2
18:44 58.7 °F 48.1 °F 30.19 in WSW 1 mph 2 mph 68% 0.00 in 0 W/m2
18:49 58.4 °F 47.8 °F 30.19 in WSW 1 mph 2 mph 68% 0.00 in 0 W/m2
18:54 57.8 °F 47.7 °F 30.19 in SW 1.2 mph 1.1 mph 68.9% 0.00 in 0 W/m2
18:59 57.4 °F 47.6 °F 30.19 in West 1 mph 2 mph 69.8% 0.00 in 0 W/m2
19:04 56.9 °F 47.5 °F 30.19 in West 1.4 mph 1.1 mph 70.7% 0.00 in 0 W/m2
19:09 56.7 °F 47.8 °F 30.19 in WNW 1.5 mph 2 mph 72% 0.00 in 0 W/m2
19:14 56.4 °F 47.8 °F 30.19 in WNW 2 mph 2 mph 72.9% 0.00 in 0 W/m2
19:19 56 °F 47.5 °F 30.19 in NW 2 mph 2 mph 73% 0.00 in 0 W/m2
19:24 55.8 °F 47.4 °F 30.19 in WNW 1 mph 2 mph 73.4% 0.00 in 0 W/m2
19:29 55.6 °F 47.4 °F 30.19 in West 1 mph 2 mph 74% 0.00 in 0 W/m2
19:34 55.3 °F 47.2 °F 30.19 in West 1.3 mph 2 mph 74% 0.00 in 0 W/m2
19:39 55.1 °F 47 °F 30.19 in WNW 1.8 mph 2 mph 74% 0.00 in 0 W/m2
19:44 54.8 °F 47 °F 30.19 in WNW 2.4 mph 3 mph 74.9% 0.00 in 0 W/m2
19:49 54.6 °F 46.8 °F 30.19 in WNW 2 mph 3 mph 75% 0.00 in 0 W/m2
19:54 54.4 °F 46.7 °F 30.20 in WNW 1.3 mph 2 mph 75% 0.00 in 0 W/m2
19:59 54.2 °F 46.6 °F 30.20 in NW 1.1 mph 2 mph 75.4% 0.00 in 0 W/m2
20:04 54 °F 46.3 °F 30.20 in NW 1.2 mph 2 mph 75% 0.00 in 0 W/m2
20:09 53.6 °F 46.1 °F 30.20 in WNW 1.9 mph 2 mph 75.4% 0.00 in 0 W/m2
20:14 53.3 °F 46.3 °F 30.20 in WNW 1.6 mph 2 mph 77% 0.00 in 0 W/m2
20:19 53.1 °F 46.1 °F 30.20 in West 3.2 mph 2.9 mph 77.2% 0.00 in 0 W/m2
20:24 52.9 °F 46.2 °F 30.20 in West 3.4 mph 4 mph 78% 0.00 in 0 W/m2
20:29 52.9 °F 46.2 °F 30.20 in WNW 2.9 mph 4 mph 78% 0.00 in 0 W/m2
20:34 52.9 °F 46.3 °F 30.20 in WNW 4.4 mph 4 mph 78.4% 0.00 in 0 W/m2
20:39 53 °F 46.3 °F 30.20 in West 3.2 mph 5 mph 78% 0.00 in 0 W/m2
20:44 53 °F 46.3 °F 30.21 in West 1.4 mph 4 mph 78% 0.00 in 0 W/m2
20:49 52.8 °F 46.1 °F 30.21 in WNW 3 mph 3.1 mph 78% 0.00 in 0 W/m2
20:54 52.5 °F 46 °F 30.21 in West 2.8 mph 4 mph 78.5% 0.00 in 0 W/m2
20:59 52.3 °F 45.7 °F 30.21 in West 2.2 mph 3 mph 78.3% 0.00 in 0 W/m2
21:04 51.8 °F 45.2 °F 30.21 in West 2.3 mph 2 mph 78% 0.00 in 0 W/m2
21:09 51.4 °F 44.9 °F 30.21 in WNW 3 mph 2.5 mph 78.4% 0.00 in 0 W/m2
21:14 51.2 °F 45.1 °F 30.21 in West 3.7 mph 3 mph 79.6% 0.00 in 0 W/m2
21:19 51.1 °F 45.1 °F 30.21 in West 3.6 mph 5 mph 80% 0.00 in 0 W/m2
21:24 51.1 °F 45.1 °F 30.21 in West 4.4 mph 4 mph 80% 0.00 in 0 W/m2
21:29 51.1 °F 45.2 °F 30.21 in West 3.3 mph 5 mph 80.2% 0.00 in 0 W/m2
21:34 50.9 °F 45 °F 30.21 in West 2.3 mph 4 mph 80.3% 0.00 in 0 W/m2
21:39 50.8 °F 44.8 °F 30.21 in West 2 mph 2 mph 80% 0.00 in 0 W/m2
21:44 50.5 °F 44.7 °F 30.21 in WNW 3.2 mph 2.9 mph 80.2% 0.00 in 0 W/m2
21:49 50.4 °F 44.9 °F 30.21 in West 4.5 mph 4 mph 81.4% 0.00 in 0 W/m2
21:54 50.4 °F 45.5 °F 30.21 in West 4.3 mph 6 mph 83% 0.00 in 0 W/m2
21:59 50.5 °F 45.4 °F 30.21 in West 3.2 mph 5 mph 82.4% 0.00 in 0 W/m2
22:04 50.3 °F 44.7 °F 30.21 in West 2.2 mph 3 mph 81.1% 0.00 in 0 W/m2
22:09 49.9 °F 44.3 °F 30.21 in WNW 2.8 mph 3 mph 81% 0.00 in 0 W/m2
22:14 49.6 °F 44 °F 30.21 in WNW 3 mph 3 mph 81% 0.00 in 0 W/m2
22:19 49.2 °F 43.6 °F 30.21 in West 3.4 mph 3 mph 81% 0.00 in 0 W/m2
22:24 48.8 °F 43.7 °F 30.21 in West 3.4 mph 3 mph 82.4% 0.00 in 0 W/m2
22:29 48.6 °F 43.6 °F 30.21 in West 3.7 mph 4 mph 83% 0.00 in 0 W/m2
22:34 48.4 °F 43.8 °F 30.21 in West 3.6 mph 5 mph 83.9% 0.00 in 0 W/m2
22:39 48.4 °F 43.8 °F 30.21 in WNW 3 mph 5 mph 84% 0.00 in 0 W/m2
22:44 48.4 °F 43.8 °F 30.21 in West 3.2 mph 3 mph 84% 0.00 in 0 W/m2
22:49 48.2 °F 43.8 °F 30.21 in West 3.8 mph 5 mph 84.6% 0.00 in 0 W/m2
22:54 48.4 °F 44.1 °F 30.21 in WNW 3.5 mph 4 mph 85% 0.00 in 0 W/m2
22:59 48.6 °F 44.3 °F 30.21 in West 3.4 mph 4 mph 85% 0.00 in 0 W/m2
23:04 48.6 °F 44.3 °F 30.21 in WNW 3.3 mph 4 mph 85% 0.00 in 0 W/m2
23:09 48.6 °F 44.3 °F 30.21 in WNW 3.2 mph 3 mph 85% 0.00 in 0 W/m2
23:14 48.6 °F 44.3 °F 30.21 in West 3.5 mph 4 mph 85% 0.00 in 0 W/m2
23:19 48.5 °F 44.1 °F 30.21 in West 3.9 mph 4 mph 84.8% 0.00 in 0 W/m2
23:24 48.4 °F 44.1 °F 30.21 in WNW 3.6 mph 5 mph 85% 0.00 in 0 W/m2
23:29 48.4 °F 44.1 °F 30.20 in WNW 3 mph 3 mph 85% 0.00 in 0 W/m2
23:34 48.2 °F 43.9 °F 30.20 in WNW 3.1 mph 3 mph 85% 0.00 in 0 W/m2
23:39 48.2 °F 43.9 °F 30.20 in WNW 2.3 mph 3 mph 85% 0.00 in 0 W/m2
23:44 48.1 °F 43.8 °F 30.20 in WNW 2.1 mph 2 mph 85% 0.00 in 0 W/m2
23:49 47.9 °F 43.6 °F 30.20 in WNW 2.9 mph 3 mph 85% 0.00 in 0 W/m2
23:54 47.7 °F 43.4 °F 30.20 in NW 2.6 mph 3 mph 85% 0.00 in 0 W/m2
23:59 47.5 °F 43.4 °F 30.20 in WNW 3.1 mph 4 mph 85.5% 0.00 in 0 W/m2
Knjazevac, Serbia
Compliments of Weather Underground - 4 mb